createdAt,value
2022-08-25T00:00:21.157Z,8.43
2022-08-25T00:02:55.964Z,8.60
2022-08-25T00:05:29.145Z,8.40
2022-08-25T00:07:58.004Z,8.27
2022-08-25T00:10:29.192Z,7.83
2022-08-25T00:12:57.446Z,8.87
2022-08-25T00:15:26.468Z,8.87
2022-08-25T00:17:58.506Z,8.80
2022-08-25T00:20:28.120Z,8.53
2022-08-25T00:22:56.811Z,9.80
2022-08-25T00:25:25.288Z,9.40
2022-08-25T00:27:53.388Z,9.33
2022-08-25T00:30:21.936Z,9.63
2022-08-25T00:32:57.091Z,9.03
2022-08-25T00:35:28.170Z,8.37
2022-08-25T00:37:57.027Z,8.87
2022-08-25T00:40:28.943Z,9.33
2022-08-25T00:42:57.381Z,9.00
2022-08-25T00:45:26.429Z,9.57
2022-08-25T00:47:55.017Z,9.93
2022-08-25T00:50:31.800Z,9.30
2022-08-25T00:53:04.712Z,9.50
2022-08-25T00:55:39.180Z,9.80
2022-08-25T00:58:15.235Z,10.10
2022-08-25T01:00:47.344Z,9.27
2022-08-25T01:03:16.499Z,9.80
2022-08-25T01:05:47.795Z,9.77
2022-08-25T01:08:21.206Z,9.40
2022-08-25T01:10:51.719Z,8.77
2022-08-25T01:13:27.642Z,9.73
2022-08-25T01:15:58.985Z,9.73
2022-08-25T01:18:29.665Z,10.07
2022-08-25T01:21:01.175Z,9.20
2022-08-25T01:23:29.320Z,9.63
2022-08-25T01:26:05.921Z,9.70
2022-08-25T01:28:35.612Z,9.30
2022-08-25T01:31:05.046Z,9.57
2022-08-25T01:33:52.599Z,9.70
2022-08-25T01:36:23.298Z,9.43
2022-08-25T01:38:52.087Z,9.53
2022-08-25T01:41:32.554Z,9.40
2022-08-25T01:44:01.092Z,9.67
2022-08-25T01:46:29.622Z,9.83
2022-08-25T01:48:57.800Z,10.40
2022-08-25T01:51:34.613Z,9.70
2022-08-25T01:54:02.905Z,10.70
2022-08-25T01:56:31.427Z,11.00
2022-08-25T01:58:59.618Z,10.63
2022-08-25T02:01:28.438Z,10.33
2022-08-25T02:03:58.348Z,10.23
2022-08-25T02:06:33.200Z,10.20
2022-08-25T02:09:07.017Z,9.97
2022-08-25T02:11:37.402Z,10.97
2022-08-25T02:14:06.952Z,10.17
2022-08-25T02:16:39.475Z,11.73
2022-08-25T02:19:11.858Z,10.53
2022-08-25T02:21:41.440Z,9.77
2022-08-25T02:24:10.475Z,11.70
2022-08-25T02:26:38.978Z,10.90
2022-08-25T02:29:09.214Z,10.83
2022-08-25T02:31:38.269Z,10.33
2022-08-25T02:34:07.401Z,9.50
2022-08-25T02:36:36.053Z,9.30
2022-08-25T02:39:08.853Z,9.50
2022-08-25T02:41:38.924Z,8.60
2022-08-25T02:44:09.361Z,9.07
2022-08-25T02:46:39.105Z,9.53
2022-08-25T02:49:09.134Z,9.77
2022-08-25T02:51:38.001Z,9.77
2022-08-25T02:54:08.097Z,10.80
2022-08-25T02:56:36.400Z,11.00
2022-08-25T02:59:05.599Z,11.20
2022-08-25T03:01:34.352Z,10.73
2022-08-25T03:04:03.999Z,11.13
2022-08-25T03:06:32.476Z,10.73
2022-08-25T03:09:01.466Z,10.20
2022-08-25T03:11:31.474Z,9.40
2022-08-25T03:13:59.774Z,11.27
2022-08-25T03:16:28.308Z,10.67
2022-08-25T03:18:57.968Z,10.37
2022-08-25T03:21:26.213Z,10.90
2022-08-25T03:23:54.565Z,9.83
2022-08-25T03:26:41.051Z,10.77
2022-08-25T03:29:11.528Z,11.53
2022-08-25T03:31:40.157Z,10.90
2022-08-25T03:34:09.335Z,10.77
2022-08-25T03:36:38.144Z,12.53
2022-08-25T03:39:08.449Z,12.33
2022-08-25T03:41:37.065Z,13.20
2022-08-25T03:44:08.038Z,12.90
2022-08-25T03:46:42.317Z,12.90
2022-08-25T03:49:14.163Z,13.80
2022-08-25T03:51:49.676Z,14.07
2022-08-25T03:54:21.757Z,13.73
2022-08-25T03:56:50.040Z,13.30
2022-08-25T03:59:20.142Z,16.00
2022-08-25T04:01:54.726Z,14.87
2022-08-25T04:04:23.914Z,14.43
2022-08-25T04:06:52.954Z,14.80
2022-08-25T04:09:21.287Z,15.13
2022-08-25T04:11:53.177Z,16.37
2022-08-25T04:14:23.633Z,15.23
2022-08-25T04:16:54.463Z,14.60
2022-08-25T04:19:23.292Z,15.87
2022-08-25T04:21:56.601Z,15.23
2022-08-25T04:24:25.105Z,15.63
2022-08-25T04:26:53.895Z,17.43
2022-08-25T04:29:25.303Z,17.60
2022-08-25T04:31:56.420Z,18.50
2022-08-25T04:34:30.199Z,21.07
2022-08-25T04:37:01.640Z,20.07
2022-08-25T04:39:30.281Z,19.67
2022-08-25T04:42:00.431Z,18.87
2022-08-25T04:44:29.049Z,18.93
2022-08-25T04:46:59.117Z,19.43
2022-08-25T04:49:28.284Z,19.17
2022-08-25T04:51:57.514Z,18.40
2022-08-25T04:54:26.044Z,18.53
2022-08-25T04:56:58.753Z,19.03
2022-08-25T04:59:30.142Z,18.03
2022-08-25T05:02:03.297Z,18.50
2022-08-25T05:04:33.347Z,19.03
2022-08-25T05:07:02.138Z,19.73
2022-08-25T05:09:32.319Z,19.17
2022-08-25T05:12:02.249Z,19.40
2022-08-25T05:14:31.465Z,19.93
2022-08-25T05:17:01.763Z,19.27
2022-08-25T05:19:30.234Z,19.30
2022-08-25T05:21:58.539Z,18.37
2022-08-25T05:24:28.010Z,18.37
2022-08-25T05:26:57.448Z,17.90
2022-08-25T05:29:25.760Z,17.43
2022-08-25T05:31:55.305Z,17.70
2022-08-25T05:34:25.718Z,18.17
2022-08-25T05:36:54.561Z,16.83
2022-08-25T05:39:22.794Z,16.93
2022-08-25T05:41:52.050Z,18.17
2022-08-25T05:44:21.301Z,17.07
2022-08-25T05:46:51.350Z,17.87
2022-08-25T05:49:19.764Z,17.47
2022-08-25T05:51:49.477Z,16.47
2022-08-25T05:54:17.751Z,17.53
2022-08-25T05:56:46.482Z,19.67
2022-08-25T05:59:14.860Z,20.57
2022-08-25T06:02:00.532Z,19.43
2022-08-25T06:04:28.975Z,19.13
2022-08-25T06:06:58.406Z,18.37
2022-08-25T06:09:26.811Z,16.53
2022-08-25T06:11:55.673Z,16.03
2022-08-25T06:14:24.862Z,16.30
2022-08-25T06:16:53.565Z,15.57
2022-08-25T06:19:23.190Z,15.30
2022-08-25T06:21:56.270Z,14.50
2022-08-25T06:24:28.074Z,13.83
2022-08-25T06:26:56.801Z,13.93
2022-08-25T06:29:25.706Z,14.33
2022-08-25T06:31:53.888Z,14.30
2022-08-25T06:34:24.150Z,14.40
2022-08-25T06:36:53.261Z,15.10
2022-08-25T06:39:22.367Z,14.23
2022-08-25T06:41:54.975Z,14.70
2022-08-25T06:44:26.285Z,14.13
2022-08-25T06:46:54.956Z,14.27
2022-08-25T06:49:23.126Z,15.00
2022-08-25T06:51:51.695Z,14.13
2022-08-25T06:54:20.016Z,15.37
2022-08-25T06:56:49.632Z,14.80
2022-08-25T06:59:19.854Z,14.57
2022-08-25T07:01:49.622Z,15.57
2022-08-25T07:04:18.357Z,15.80
2022-08-25T07:06:46.890Z,15.83
2022-08-25T07:09:16.367Z,14.67
2022-08-25T07:11:46.163Z,15.33
2022-08-25T07:14:17.267Z,14.80
2022-08-25T07:16:50.297Z,15.10
2022-08-25T07:19:20.799Z,14.30
2022-08-25T07:21:54.320Z,14.43
2022-08-25T07:24:23.840Z,15.00
2022-08-25T07:26:52.376Z,14.73
2022-08-25T07:29:32.322Z,14.57
2022-08-25T07:32:03.154Z,13.60
2022-08-25T07:34:52.143Z,13.57
2022-08-25T07:40:14.656Z,12.93
2022-08-25T07:42:43.208Z,12.83
2022-08-25T07:45:13.201Z,12.67
2022-08-25T07:47:42.691Z,13.03
2022-08-25T07:50:13.645Z,12.70
2022-08-25T07:52:42.892Z,12.60
2022-08-25T07:55:11.953Z,13.47
2022-08-25T07:57:41.316Z,13.80
2022-08-25T08:00:11.487Z,13.90
2022-08-25T08:02:39.930Z,13.83
2022-08-25T08:05:12.078Z,13.37
2022-08-25T08:07:43.545Z,14.93
2022-08-25T08:13:07.237Z,14.43
2022-08-25T08:15:35.996Z,13.40
2022-08-25T08:18:07.204Z,14.13
2022-08-25T08:20:42.400Z,12.30
2022-08-25T08:23:11.552Z,12.43
2022-08-25T08:25:40.127Z,12.27
2022-08-25T08:28:08.659Z,11.50
2022-08-25T08:30:39.214Z,12.27
2022-08-25T08:33:11.242Z,11.23
2022-08-25T08:35:42.607Z,11.07
2022-08-25T08:38:17.193Z,10.73
2022-08-25T08:41:24.396Z,10.03
2022-08-25T08:44:03.141Z,10.67
2022-08-25T08:46:47.158Z,10.30
2022-08-25T08:49:28.924Z,10.50
2022-08-25T08:52:04.333Z,9.60
2022-08-25T08:54:38.990Z,9.30
2022-08-25T08:57:16.655Z,9.67
2022-08-25T08:59:54.358Z,9.20
2022-08-25T09:02:39.520Z,9.03
2022-08-25T09:05:24.260Z,8.97
2022-08-25T09:07:58.791Z,8.33
2022-08-25T09:10:41.303Z,9.40
2022-08-25T09:13:26.311Z,8.97
2022-08-25T09:16:33.783Z,8.10
2022-08-25T09:19:23.728Z,7.93
2022-08-25T09:22:03.823Z,7.50
2022-08-25T09:25:08.910Z,7.40
2022-08-25T09:27:48.363Z,6.80
2022-08-25T09:30:19.657Z,7.60
2022-08-25T09:32:53.609Z,7.27
2022-08-25T09:35:26.667Z,7.70
2022-08-25T09:38:00.889Z,7.93
2022-08-25T09:40:34.854Z,8.33
2022-08-25T09:43:10.343Z,6.63
2022-08-25T09:45:43.541Z,7.33
2022-08-25T09:48:28.450Z,8.50
2022-08-25T09:51:03.421Z,7.33
2022-08-25T09:53:34.753Z,7.43
2022-08-25T09:56:08.069Z,7.10
2022-08-25T09:58:36.547Z,6.73
2022-08-25T10:01:15.710Z,6.67
2022-08-25T10:04:04.725Z,6.47
2022-08-25T10:06:43.690Z,6.10
2022-08-25T10:09:27.025Z,6.57
2022-08-25T10:12:01.055Z,6.13
2022-08-25T10:14:44.618Z,6.57
2022-08-25T10:17:24.664Z,6.03
2022-08-25T10:20:17.140Z,6.17
2022-08-25T10:22:48.295Z,5.60
2022-08-25T10:25:30.875Z,5.70
2022-08-25T10:28:16.007Z,5.63
2022-08-25T10:31:04.784Z,5.27
2022-08-25T10:33:57.583Z,5.67
2022-08-25T10:36:41.494Z,5.37
2022-08-25T10:39:41.323Z,6.43
2022-08-25T10:42:34.718Z,6.03
2022-08-25T10:45:39.105Z,5.83
2022-08-25T10:48:44.154Z,5.83
2022-08-25T10:51:47.824Z,6.63
2022-08-25T10:54:42.713Z,6.23
2022-08-25T10:57:25.983Z,5.80
2022-08-25T11:00:10.164Z,5.97
2022-08-25T11:03:14.762Z,5.30
2022-08-25T11:05:47.914Z,6.80
2022-08-25T11:08:26.224Z,6.93
2022-08-25T11:11:00.886Z,6.63
2022-08-25T11:13:44.315Z,6.30
2022-08-25T11:16:21.108Z,6.00
2022-08-25T11:19:05.606Z,6.83
2022-08-25T11:21:48.814Z,6.03
2022-08-25T11:24:41.932Z,7.07
2022-08-25T11:27:19.453Z,6.87
2022-08-25T11:30:03.325Z,6.37
2022-08-25T11:32:35.642Z,7.70
2022-08-25T11:35:12.212Z,7.87
2022-08-25T11:38:01.647Z,7.90
2022-08-25T11:41:11.063Z,7.70
2022-08-25T11:44:04.814Z,7.93
2022-08-25T11:46:57.930Z,8.27
2022-08-25T11:49:51.684Z,8.13
2022-08-25T11:52:53.966Z,9.23
2022-08-25T11:55:30.655Z,8.10
2022-08-25T11:58:35.261Z,9.23
2022-08-25T12:01:07.111Z,8.93
2022-08-25T12:04:14.829Z,9.87
2022-08-25T12:07:23.464Z,10.93
2022-08-25T12:10:18.563Z,10.00
2022-08-25T12:13:25.636Z,10.80
2022-08-25T12:16:01.598Z,10.13
2022-08-25T12:18:45.734Z,9.97
2022-08-25T12:21:33.014Z,10.40
2022-08-25T12:24:18.029Z,10.87
2022-08-25T12:27:06.499Z,11.07
2022-08-25T12:29:46.132Z,11.13
2022-08-25T12:32:39.491Z,11.33
2022-08-25T12:35:29.909Z,10.73
2022-08-25T12:38:08.943Z,10.23
2022-08-25T12:40:54.254Z,11.07
2022-08-25T12:43:33.331Z,11.13
2022-08-25T12:46:38.239Z,10.80
2022-08-25T12:49:30.621Z,10.80
2022-08-25T12:52:05.953Z,10.15
2022-08-25T12:54:49.081Z,10.27
2022-08-25T12:57:41.025Z,9.52
2022-08-25T13:00:22.348Z,9.60
2022-08-25T13:03:31.933Z,10.95
2022-08-25T13:06:26.274Z,9.40
2022-08-25T13:09:50.361Z,9.10
2022-08-25T13:12:25.243Z,9.80
2022-08-25T13:14:57.005Z,9.23
2022-08-25T13:17:35.728Z,8.15
2022-08-25T13:20:16.334Z,7.85
2022-08-25T13:22:48.915Z,8.65
2022-08-25T13:25:23.027Z,7.47
2022-08-25T13:28:06.168Z,7.15
2022-08-25T13:30:37.261Z,7.75
2022-08-25T13:33:21.962Z,7.38
2022-08-25T13:36:14.138Z,7.45
2022-08-25T13:38:45.763Z,7.63
2022-08-25T13:41:22.375Z,7.53
2022-08-25T13:44:00.874Z,8.35
2022-08-25T13:46:31.709Z,7.00
2022-08-25T13:49:08.827Z,6.68
2022-08-25T13:51:39.093Z,6.90
2022-08-25T13:54:10.519Z,7.07
2022-08-25T13:56:43.008Z,7.90
2022-08-25T13:59:25.858Z,8.13
2022-08-25T14:01:56.376Z,7.43
2022-08-25T14:04:32.506Z,7.15
2022-08-25T14:07:19.291Z,7.18
2022-08-25T14:09:53.594Z,7.05
2022-08-25T14:12:33.068Z,6.40
2022-08-25T14:15:08.404Z,6.85
2022-08-25T14:17:40.561Z,6.30
2022-08-25T14:20:22.320Z,6.40
2022-08-25T14:22:55.656Z,6.20
2022-08-25T14:25:26.726Z,6.68
2022-08-25T14:28:09.121Z,6.20
2022-08-25T14:30:47.282Z,6.05
2022-08-25T14:33:18.457Z,6.03
2022-08-25T14:35:53.781Z,6.15
2022-08-25T14:38:23.802Z,6.57
2022-08-25T14:40:52.280Z,6.40
2022-08-25T14:43:20.893Z,6.22
2022-08-25T14:45:53.589Z,5.60
2022-08-25T14:48:30.470Z,5.40
2022-08-25T14:51:01.649Z,4.85
2022-08-25T14:53:30.375Z,5.82
2022-08-25T14:55:59.437Z,5.18
2022-08-25T14:58:28.028Z,5.32
2022-08-25T15:01:04.313Z,5.43
2022-08-25T15:03:37.653Z,5.68
2022-08-25T15:06:08.454Z,5.60
2022-08-25T15:08:57.581Z,5.03
2022-08-25T15:11:29.220Z,4.57
2022-08-25T15:13:58.323Z,5.25
2022-08-25T15:16:35.036Z,4.82
2022-08-25T15:19:07.145Z,5.03
2022-08-25T15:21:39.581Z,5.00
2022-08-25T15:24:10.327Z,5.38
2022-08-25T15:26:45.035Z,4.85
2022-08-25T15:29:14.412Z,5.95
2022-08-25T15:31:43.978Z,5.05
2022-08-25T15:34:13.929Z,4.65
2022-08-25T15:36:44.132Z,4.57
2022-08-25T15:39:12.439Z,5.15
2022-08-25T15:41:42.617Z,5.63
2022-08-25T15:44:11.514Z,5.65
2022-08-25T15:46:47.035Z,4.95
2022-08-25T15:49:20.301Z,5.78
2022-08-25T15:51:54.549Z,4.85
2022-08-25T15:54:26.791Z,4.75
2022-08-25T15:56:56.728Z,5.63
2022-08-25T15:59:26.204Z,5.28
2022-08-25T16:01:56.031Z,5.65
2022-08-25T16:04:29.213Z,5.30
2022-08-25T16:06:59.013Z,5.50
2022-08-25T16:09:27.548Z,4.75
2022-08-25T16:11:58.971Z,5.38
2022-08-25T16:14:30.867Z,4.78
2022-08-25T16:16:59.804Z,4.93
2022-08-25T16:19:28.565Z,5.18
2022-08-25T16:21:59.969Z,5.18
2022-08-25T16:24:28.446Z,4.97
2022-08-25T16:27:11.175Z,5.28
2022-08-25T16:29:43.725Z,5.28
2022-08-25T16:32:14.482Z,5.53
2022-08-25T16:34:44.269Z,5.27
2022-08-25T16:37:14.275Z,5.43
2022-08-25T16:39:45.745Z,5.30
2022-08-25T16:42:14.810Z,5.73
2022-08-25T16:44:43.150Z,5.77
2022-08-25T16:47:13.973Z,5.73
2022-08-25T16:49:43.451Z,6.00
2022-08-25T16:52:30.316Z,5.87
2022-08-25T16:55:15.034Z,5.67
2022-08-25T16:57:47.555Z,5.77
2022-08-25T17:00:19.507Z,6.03
2022-08-25T17:02:48.731Z,6.27
2022-08-25T17:05:16.989Z,5.40
2022-08-25T17:08:09.511Z,5.80
2022-08-25T17:10:42.630Z,5.67
2022-08-25T17:13:12.778Z,6.03
2022-08-25T17:15:43.176Z,6.03
2022-08-25T17:18:12.793Z,5.90
2022-08-25T17:20:41.105Z,6.20
2022-08-25T17:23:12.358Z,6.20
2022-08-25T17:25:42.915Z,6.57
2022-08-25T17:28:12.775Z,7.10
2022-08-25T17:30:43.453Z,5.77
2022-08-25T17:33:12.085Z,5.93
2022-08-25T17:35:42.426Z,5.43
2022-08-25T17:38:12.776Z,5.70
2022-08-25T17:40:41.573Z,5.90
2022-08-25T17:43:10.192Z,6.00
2022-08-25T17:45:39.106Z,5.77
2022-08-25T17:48:08.758Z,5.47
2022-08-25T17:50:38.160Z,5.20
2022-08-25T17:53:07.751Z,5.73
2022-08-25T17:55:42.284Z,6.03
2022-08-25T17:58:13.684Z,6.57
2022-08-25T18:00:45.525Z,5.53
2022-08-25T18:03:13.811Z,5.97
2022-08-25T18:05:43.979Z,5.27
2022-08-25T18:08:14.504Z,6.03
2022-08-25T18:10:44.213Z,6.27
2022-08-25T18:13:12.661Z,6.50
2022-08-25T18:15:42.350Z,6.17
2022-08-25T18:18:12.539Z,6.20
2022-08-25T18:20:41.342Z,6.07
2022-08-25T18:23:11.814Z,5.70
2022-08-25T18:25:41.808Z,5.73
2022-08-25T18:28:12.678Z,6.03
2022-08-25T18:30:41.038Z,5.80
2022-08-25T18:33:09.724Z,5.87
2022-08-25T18:35:40.910Z,6.17
2022-08-25T18:38:27.479Z,6.57
2022-08-25T18:40:58.050Z,6.10
2022-08-25T18:43:31.944Z,6.70
2022-08-25T18:46:04.713Z,6.07
2022-08-25T18:48:34.606Z,6.87
2022-08-25T18:51:03.015Z,6.07
2022-08-25T18:53:37.410Z,6.63
2022-08-25T18:56:20.404Z,6.37
2022-08-25T18:58:50.825Z,6.07
2022-08-25T19:01:20.569Z,6.63
2022-08-25T19:03:50.494Z,6.00
2022-08-25T19:06:20.765Z,6.30
2022-08-25T19:08:49.724Z,6.73
2022-08-25T19:11:22.246Z,6.17
2022-08-25T19:13:52.653Z,7.10
2022-08-25T19:16:34.627Z,6.40
2022-08-25T19:19:06.453Z,6.73
2022-08-25T19:21:35.142Z,6.70
2022-08-25T19:24:03.902Z,7.17
2022-08-25T19:26:34.391Z,6.33
2022-08-25T19:29:05.157Z,6.23
2022-08-25T19:31:39.339Z,6.77
2022-08-25T19:34:12.128Z,7.73
2022-08-25T19:36:41.418Z,7.23
2022-08-25T19:39:13.390Z,6.47
2022-08-25T19:41:44.006Z,7.27
2022-08-25T19:44:14.529Z,6.57
2022-08-25T19:46:46.652Z,7.10
2022-08-25T19:49:18.575Z,7.43
2022-08-25T19:51:51.348Z,6.77
2022-08-25T19:54:26.274Z,8.23
2022-08-25T19:56:55.671Z,7.23
2022-08-25T19:59:34.251Z,7.07
2022-08-25T20:02:15.893Z,6.97
2022-08-25T20:04:49.640Z,7.30
2022-08-25T20:07:21.481Z,7.10
2022-08-25T20:09:53.598Z,7.13
2022-08-25T20:12:23.602Z,7.40
2022-08-25T20:14:54.508Z,8.20
2022-08-25T20:17:26.251Z,7.20
2022-08-25T20:19:59.979Z,7.13
2022-08-25T20:22:32.293Z,7.83
2022-08-25T20:25:13.234Z,8.03
2022-08-25T20:27:45.049Z,7.97
2022-08-25T20:30:18.668Z,7.73
2022-08-25T20:32:47.201Z,7.50
2022-08-25T20:35:16.953Z,7.60
2022-08-25T20:37:48.732Z,7.63
2022-08-25T20:40:26.206Z,7.07
2022-08-25T20:42:54.845Z,7.70
2022-08-25T20:45:24.786Z,7.77
2022-08-25T20:47:52.984Z,7.40
2022-08-25T20:50:22.950Z,7.23
2022-08-25T20:52:52.054Z,7.43
2022-08-25T20:55:21.725Z,7.53
2022-08-25T20:57:50.392Z,7.03
2022-08-25T21:00:24.679Z,7.37
2022-08-25T21:02:54.985Z,8.03
2022-08-25T21:05:23.359Z,7.57
2022-08-25T21:07:51.838Z,7.50
2022-08-25T21:10:20.257Z,7.80
2022-08-25T21:12:49.429Z,7.40
2022-08-25T21:15:21.916Z,7.43
2022-08-25T21:17:53.175Z,7.40
2022-08-25T21:20:26.246Z,7.40
2022-08-25T21:22:55.336Z,7.27
2022-08-25T21:25:25.002Z,7.80
2022-08-25T21:27:53.160Z,7.63
2022-08-25T21:30:21.551Z,9.00
2022-08-25T21:32:53.092Z,7.47
2022-08-25T21:35:26.749Z,7.30
2022-08-25T21:37:54.881Z,7.50
2022-08-25T21:40:24.026Z,8.20
2022-08-25T21:42:54.161Z,8.20
2022-08-25T21:45:22.567Z,7.53
2022-08-25T21:47:51.944Z,7.83
2022-08-25T21:50:23.197Z,7.87
2022-08-25T21:52:54.466Z,8.27
2022-08-25T21:55:23.558Z,8.00
2022-08-25T21:57:52.577Z,8.17
2022-08-25T22:00:22.858Z,7.33
2022-08-25T22:02:51.234Z,7.27
2022-08-25T22:05:19.651Z,7.70
2022-08-25T22:07:49.623Z,7.80
2022-08-25T22:10:18.228Z,8.30
2022-08-25T22:12:47.648Z,7.63
2022-08-25T22:15:19.959Z,7.87
2022-08-25T22:17:48.828Z,8.23
2022-08-25T22:20:19.599Z,7.90
2022-08-25T22:22:49.790Z,7.00
2022-08-25T22:25:18.293Z,7.73
2022-08-25T22:27:47.848Z,7.47
2022-08-25T22:30:25.111Z,8.73
2022-08-25T22:32:56.448Z,7.43
2022-08-25T22:35:24.560Z,8.40
2022-08-25T22:37:54.068Z,8.67
2022-08-25T22:40:22.253Z,6.77
2022-08-25T22:42:51.397Z,7.73
2022-08-25T22:45:20.250Z,7.93
2022-08-25T22:47:48.473Z,7.93
2022-08-25T22:50:17.427Z,7.60
2022-08-25T22:52:47.667Z,8.00
2022-08-25T22:55:17.956Z,7.97
2022-08-25T22:57:50.298Z,8.40
2022-08-25T23:00:23.441Z,7.80
2022-08-25T23:02:53.424Z,7.43
2022-08-25T23:05:22.103Z,7.70
2022-08-25T23:07:50.924Z,7.97
2022-08-25T23:10:22.667Z,7.37
2022-08-25T23:12:50.898Z,8.50
2022-08-25T23:15:19.175Z,8.33
2022-08-25T23:17:47.263Z,7.57
2022-08-25T23:20:33.855Z,7.03
2022-08-25T23:23:01.985Z,7.40
2022-08-25T23:25:31.409Z,7.67
2022-08-25T23:27:59.601Z,8.27
2022-08-25T23:30:28.054Z,8.60
2022-08-25T23:32:58.715Z,8.27
2022-08-25T23:35:26.855Z,8.47
2022-08-25T23:37:58.685Z,8.07
2022-08-25T23:40:27.643Z,8.33
2022-08-25T23:42:57.131Z,7.93
2022-08-25T23:45:25.358Z,8.47
2022-08-25T23:47:53.988Z,7.13
2022-08-25T23:50:22.289Z,8.23
2022-08-25T23:52:50.582Z,6.63
2022-08-25T23:55:19.188Z,7.00
2022-08-25T23:57:51.490Z,7.63
